Time;durP1;ratioP1;P1;durP2;ratioP2;P2;SDS_P1;SDS_P2;PMS_P1;PMS_P2;Temp;Humidity;BMP_temperature;BMP_pressure;BME280_temperature;BME280_humidity;BME280_pressure;Samples;Min_cycle;Max_cycle;Signal;HPM_P1;HPM_P2
2023/05/03 00:01:29;;;;;;;4.03;2.08;;;3.50;99.90;;;;;;5019180;28;20108;-64
2023/05/03 00:03:55;;;;;;;4.82;2.47;;;3.50;99.90;;;;;;5018607;28;20018;-64
2023/05/03 00:06:21;;;;;;;2.25;2.03;;;3.40;99.90;;;;;;5018964;28;20594;-64
2023/05/03 00:08:47;;;;;;;3.10;2.42;;;3.40;99.90;;;;;;5019631;28;20026;-64
2023/05/03 00:11:12;;;;;;;5.25;2.30;;;3.30;99.90;;;;;;5019358;28;20105;-64
2023/05/03 00:13:38;;;;;;;2.95;1.98;;;3.30;99.90;;;;;;5002076;28;20113;-64
2023/05/03 00:16:05;;;;;;;2.30;2.10;;;3.30;99.90;;;;;;5017263;28;20403;-63
2023/05/03 00:18:30;;;;;;;7.63;2.17;;;3.30;99.90;;;;;;5016190;28;20031;-64
2023/05/03 00:20:58;;;;;;;4.22;2.45;;;3.30;99.90;;;;;;5000922;28;20104;-64
2023/05/03 00:23:43;;;;;;;6.43;2.60;;;3.20;99.90;;;;;;5017600;28;20061;-64
2023/05/03 00:26:08;;;;;;;5.45;2.38;;;3.20;99.90;;;;;;5018885;28;20108;-64
2023/05/03 00:28:34;;;;;;;3.42;1.98;;;3.20;99.90;;;;;;5001205;28;20025;-64
2023/05/03 00:31:07;;;;;;;6.95;2.58;;;3.10;99.90;;;;;;5017253;28;20034;-64
2023/05/03 00:33:32;;;;;;;6.30;2.25;;;3.10;99.90;;;;;;5019057;28;20396;-63
2023/05/03 00:35:58;;;;;;;5.90;2.17;;;3.10;99.90;;;;;;5017272;28;20025;-62
2023/05/03 00:38:23;;;;;;;4.53;2.20;;;3.10;99.90;;;;;;5001146;28;20184;-63
2023/05/03 00:40:55;;;;;;;6.05;2.20;;;3.00;99.90;;;;;;5002639;28;20026;-62
2023/05/03 00:43:21;;;;;;;5.78;2.47;;;3.00;99.90;;;;;;5018456;28;20113;-64
2023/05/03 00:45:46;;;;;;;7.07;2.70;;;3.00;99.90;;;;;;5018781;28;20136;-63
2023/05/03 00:48:12;;;;;;;6.47;2.95;;;3.00;99.90;;;;;;5002735;28;20037;-63
2023/05/03 00:50:38;;;;;;;5.72;2.50;;;3.00;99.90;;;;;;5014745;28;20030;-64
2023/05/03 00:53:03;;;;;;;4.40;2.10;;;2.90;99.90;;;;;;5000346;28;20032;-64
2023/05/03 00:55:32;;;;;;;4.68;2.25;;;2.90;99.90;;;;;;5018421;28;20030;-64
2023/05/03 00:57:58;;;;;;;2.88;2.22;;;2.80;99.90;;;;;;5000212;28;20028;-64
2023/05/03 01:00:24;;;;;;;2.85;2.30;;;2.80;99.90;;;;;;5038473;22;20041;-51
2023/05/03 01:02:50;;;;;;;4.45;2.25;;;2.80;99.90;;;;;;5026515;28;20391;-49
2023/05/03 01:05:16;;;;;;;5.30;2.63;;;2.80;99.90;;;;;;5010091;28;20506;-49
2023/05/03 01:07:53;;;;;;;6.25;2.80;;;2.80;99.90;;;;;;5028263;28;20044;-53
2023/05/03 01:11:01;;;;;;;4.88;2.50;;;2.80;99.90;;;;;;5026639;28;20025;-50
2023/05/03 01:13:51;;;;;;;6.30;2.92;;;2.70;99.90;;;;;;5000627;28;20048;-51
2023/05/03 01:16:33;;;;;;;5.43;2.60;;;2.70;99.90;;;;;;5000095;28;20487;-51
2023/05/03 01:19:03;;;;;;;4.93;2.80;;;2.70;99.90;;;;;;5017168;28;20030;-52
2023/05/03 01:21:30;;;;;;;5.53;2.67;;;2.60;99.90;;;;;;5014357;28;20030;-50
2023/05/03 01:24:16;;;;;;;3.80;2.20;;;2.60;99.90;;;;;;5017698;28;20034;-54
2023/05/03 01:26:42;;;;;;;5.45;2.70;;;2.60;99.90;;;;;;5016637;28;20041;-51
2023/05/03 01:29:07;;;;;;;7.40;3.00;;;2.60;99.90;;;;;;5016185;28;20030;-54
2023/05/03 01:31:44;;;;;;;5.10;2.63;;;2.60;99.90;;;;;;5016378;28;20117;-51
2023/05/03 01:34:16;;;;;;;5.60;2.80;;;2.60;99.90;;;;;;5017456;28;20076;-53
2023/05/03 01:36:43;;;;;;;4.47;2.40;;;2.60;99.90;;;;;;5017785;28;20093;-49
2023/05/03 01:39:15;;;;;;;4.03;2.47;;;2.70;99.90;;;;;;5016844;28;20085;-51
2023/05/03 01:41:41;;;;;;;4.88;2.85;;;2.70;99.90;;;;;;5017876;28;20480;-53
2023/05/03 01:44:08;;;;;;;4.97;2.90;;;2.70;99.90;;;;;;5018593;28;20142;-50
2023/05/03 01:46:43;;;;;;;4.65;2.38;;;2.70;99.90;;;;;;5015673;28;20095;-50
2023/05/03 01:49:09;;;;;;;6.75;3.25;;;2.80;99.90;;;;;;5017627;28;20455;-52
2023/05/03 01:51:35;;;;;;;3.42;2.63;;;2.80;99.90;;;;;;5017212;28;20017;-52
2023/05/03 01:54:01;;;;;;;5.80;2.55;;;2.80;99.90;;;;;;5016345;28;20029;-52
2023/05/03 01:56:26;;;;;;;8.80;3.00;;;2.80;99.90;;;;;;5017835;28;20030;-50
2023/05/03 01:58:52;;;;;;;5.07;2.85;;;2.80;99.90;;;;;;5016315;28;20061;-51
2023/05/03 02:01:17;;;;;;;4.15;2.60;;;2.80;99.90;;;;;;5016523;28;20653;-51
2023/05/03 02:03:43;;;;;;;5.82;2.67;;;2.80;99.90;;;;;;5015843;28;20463;-52
2023/05/03 02:06:08;;;;;;;2.67;2.40;;;2.80;99.90;;;;;;5018741;28;20029;-51
2023/05/03 02:08:34;;;;;;;4.32;2.58;;;2.80;99.90;;;;;;5016558;28;20076;-49
2023/05/03 02:11:00;;;;;;;8.57;2.30;;;2.80;99.90;;;;;;5000435;28;20021;-53
2023/05/03 02:13:25;;;;;;;4.72;2.92;;;2.80;99.90;;;;;;5018091;28;20022;-52
2023/05/03 02:15:51;;;;;;;5.28;3.00;;;2.80;99.90;;;;;;5016637;28;20826;-50
2023/05/03 02:18:19;;;;;;;5.07;3.00;;;2.80;99.90;;;;;;5016760;28;20650;-51
2023/05/03 02:20:45;;;;;;;4.90;2.45;;;2.80;99.90;;;;;;5016904;28;20018;-50
2023/05/03 02:23:13;;;;;;;4.10;2.75;;;2.80;99.90;;;;;;5017546;28;20424;-49
2023/05/03 02:25:39;;;;;;;4.57;2.42;;;2.90;99.90;;;;;;5016307;28;20021;-52
2023/05/03 02:28:05;;;;;;;5.82;2.47;;;2.90;99.90;;;;;;5014992;28;20055;-50
2023/05/03 02:30:32;;;;;;;4.30;2.55;;;2.90;99.90;;;;;;5015445;28;20042;-50
2023/05/03 02:32:58;;;;;;;5.50;2.95;;;2.90;99.90;;;;;;5014299;28;20021;-52
2023/05/03 02:35:23;;;;;;;6.85;2.75;;;2.90;99.90;;;;;;5015969;28;20034;-52
2023/05/03 02:37:50;;;;;;;4.03;2.40;;;3.00;99.90;;;;;;5019310;28;20489;-49
2023/05/03 02:40:15;;;;;;;6.10;3.10;;;3.00;99.90;;;;;;5005109;28;20150;-49
2023/05/03 02:42:41;;;;;;;6.85;3.20;;;3.00;99.90;;;;;;5019741;28;20068;-50
2023/05/03 02:45:07;;;;;;;6.13;3.53;;;3.10;99.90;;;;;;5019359;28;20041;-50
2023/05/03 02:47:32;;;;;;;5.20;2.70;;;3.00;99.90;;;;;;5002278;28;20030;-50
2023/05/03 02:49:58;;;;;;;10.40;3.67;;;3.10;99.90;;;;;;5019192;28;20080;-51
2023/05/03 02:52:23;;;;;;;7.78;2.88;;;3.20;99.90;;;;;;5018494;28;20029;-50
2023/05/03 02:54:49;;;;;;;3.40;2.75;;;3.20;99.90;;;;;;5020416;28;20061;-51
2023/05/03 02:57:15;;;;;;;4.75;3.15;;;3.20;99.90;;;;;;5020516;28;20033;-50
2023/05/03 02:59:40;;;;;;;5.03;3.25;;;3.20;99.90;;;;;;5002633;28;20105;-50
2023/05/03 03:02:06;;;;;;;5.35;2.97;;;3.30;99.90;;;;;;5017645;28;20400;-49
2023/05/03 03:04:31;;;;;;;7.75;2.55;;;3.30;99.90;;;;;;5019860;28;20026;-49
2023/05/03 03:06:57;;;;;;;3.88;2.88;;;3.30;99.90;;;;;;5019381;28;20030;-50
2023/05/03 03:09:23;;;;;;;5.50;3.22;;;3.30;99.90;;;;;;5020401;28;20034;-51
2023/05/03 03:11:51;;;;;;;4.38;2.95;;;3.40;99.90;;;;;;5019637;28;20674;-51
2023/05/03 03:14:16;;;;;;;2.90;2.60;;;3.30;99.90;;;;;;5003205;28;20053;-50
2023/05/03 03:16:43;;;;;;;6.53;3.08;;;3.40;99.90;;;;;;5018634;28;20518;-52
2023/05/03 03:19:09;;;;;;;7.85;3.08;;;3.40;99.90;;;;;;5019922;28;20028;-51
2023/05/03 03:21:35;;;;;;;5.07;3.00;;;3.40;99.90;;;;;;5020922;28;20017;-49
2023/05/03 03:24:02;;;;;;;4.80;3.10;;;3.40;99.90;;;;;;5020779;28;20071;-52
2023/05/03 03:26:28;;;;;;;3.30;2.40;;;3.40;99.90;;;;;;5018114;28;20026;-50
2023/05/03 03:28:53;;;;;;;5.10;2.97;;;3.40;99.90;;;;;;5018754;28;20025;-51
2023/05/03 03:31:21;;;;;;;4.63;3.45;;;3.50;99.90;;;;;;5019108;28;20536;-49
2023/05/03 03:33:47;;;;;;;4.20;3.15;;;3.50;99.90;;;;;;5017211;28;20033;-49
2023/05/03 03:36:12;;;;;;;2.85;2.53;;;3.50;99.90;;;;;;5019659;28;20030;-51
2023/05/03 03:38:39;;;;;;;3.03;2.70;;;3.50;99.90;;;;;;4991526;28;20041;-49
2023/05/03 03:41:06;;;;;;;3.40;2.85;;;3.50;99.90;;;;;;5020052;28;20077;-52
2023/05/03 03:43:31;;;;;;;6.25;2.88;;;3.60;99.90;;;;;;5007581;28;20080;-49
2023/05/03 03:45:57;;;;;;;8.40;3.45;;;3.60;99.90;;;;;;5019610;28;20033;-53
2023/05/03 03:48:22;;;;;;;5.13;2.28;;;3.60;99.90;;;;;;5017226;28;20037;-50
2023/05/03 03:50:49;;;;;;;2.50;2.30;;;3.70;99.90;;;;;;5017408;28;20044;-54
2023/05/03 03:53:14;;;;;;;5.72;2.83;;;3.70;99.90;;;;;;5019863;28;20025;-51
2023/05/03 03:55:40;;;;;;;5.38;3.30;;;3.70;99.90;;;;;;5018786;28;20415;-52
2023/05/03 03:58:06;;;;;;;3.38;2.42;;;3.70;99.90;;;;;;5019248;28;20087;-50
2023/05/03 04:00:34;;;;;;;5.38;3.20;;;3.70;99.90;;;;;;5018583;28;20042;-50
2023/05/03 04:03:00;;;;;;;11.35;3.47;;;3.70;99.90;;;;;;5018388;28;20113;-49
2023/05/03 04:05:25;;;;;;;6.78;3.47;;;3.80;99.90;;;;;;5015436;28;20964;-49
2023/05/03 04:07:51;;;;;;;6.25;3.42;;;3.80;99.90;;;;;;5017818;28;20034;-50
2023/05/03 04:10:16;;;;;;;6.68;2.88;;;3.80;99.90;;;;;;5018006;28;20022;-50
2023/05/03 04:12:42;;;;;;;3.58;2.88;;;3.80;99.90;;;;;;5001662;28;20029;-49
2023/05/03 04:15:08;;;;;;;4.82;2.88;;;3.80;99.90;;;;;;5017783;28;20061;-50
2023/05/03 04:17:34;;;;;;;7.60;3.10;;;3.90;99.90;;;;;;5017164;28;20029;-49
2023/05/03 04:20:04;;;;;;;5.20;2.97;;;3.90;99.90;;;;;;5016896;28;20030;-50
2023/05/03 04:22:31;;;;;;;4.68;2.90;;;4.00;99.90;;;;;;5001550;28;20030;-51
2023/05/03 04:24:56;;;;;;;4.82;2.80;;;4.00;99.90;;;;;;5018443;28;20400;-50
2023/05/03 04:27:22;;;;;;;7.32;3.17;;;4.00;99.90;;;;;;5000342;28;20032;-53
2023/05/03 04:29:49;;;;;;;6.53;3.55;;;4.00;99.90;;;;;;5017314;28;20099;-49
2023/05/03 04:32:15;;;;;;;6.80;3.20;;;4.10;99.90;;;;;;5017326;28;20034;-49
2023/05/03 04:34:41;;;;;;;6.68;3.67;;;4.10;99.90;;;;;;5016482;28;20492;-51
2023/05/03 04:37:08;;;;;;;3.95;3.55;;;4.20;99.90;;;;;;5017230;28;20036;-51
2023/05/03 04:39:34;;;;;;;6.28;3.55;;;4.20;99.90;;;;;;5016616;28;20064;-51
2023/05/03 04:42:00;;;;;;;3.33;3.00;;;4.30;99.90;;;;;;5016722;28;20065;-51
2023/05/03 04:44:26;;;;;;;5.68;2.92;;;4.30;99.90;;;;;;5015873;28;20037;-50
2023/05/03 04:46:52;;;;;;;4.82;3.22;;;4.30;99.90;;;;;;5015954;28;20373;-52
2023/05/03 04:49:17;;;;;;;10.13;3.40;;;4.40;99.90;;;;;;5014574;28;20030;-51
2023/05/03 04:51:43;;;;;;;3.55;2.85;;;4.50;99.90;;;;;;5016061;28;20026;-49
2023/05/03 04:54:08;;;;;;;7.28;3.75;;;4.50;99.90;;;;;;5016353;28;20030;-49
2023/05/03 04:56:34;;;;;;;5.03;2.65;;;4.60;99.90;;;;;;5016865;28;20044;-52
2023/05/03 04:59:00;;;;;;;7.78;3.55;;;4.60;99.90;;;;;;5018069;28;20029;-50
2023/05/03 05:01:26;;;;;;;4.57;2.60;;;4.70;99.90;;;;;;5017614;28;20033;-50
2023/05/03 05:03:53;;;;;;;4.25;3.55;;;4.70;99.90;;;;;;5019023;28;20192;-50
2023/05/03 05:06:19;;;;;;;5.47;2.85;;;4.80;99.90;;;;;;5016618;28;20026;-50
2023/05/03 05:08:44;;;;;;;4.07;3.00;;;4.80;99.90;;;;;;5018241;28;20048;-50
2023/05/03 05:11:12;;;;;;;5.82;3.33;;;4.90;99.90;;;;;;5016678;28;20150;-50
2023/05/03 05:13:38;;;;;;;5.68;3.05;;;5.00;99.90;;;;;;5015837;28;20025;-52
2023/05/03 05:16:04;;;;;;;5.68;3.70;;;5.10;99.90;;;;;;5015862;28;20395;-50
2023/05/03 05:18:30;;;;;;;4.80;3.33;;;5.10;99.90;;;;;;5006236;28;20034;-51
2023/05/03 05:20:55;;;;;;;6.50;3.60;;;5.20;99.90;;;;;;5000993;28;20161;-50
2023/05/03 05:23:21;;;;;;;6.20;3.65;;;5.30;99.90;;;;;;5016361;28;20033;-50
2023/05/03 05:25:47;;;;;;;6.90;3.85;;;5.40;99.90;;;;;;5016175;28;20113;-52
2023/05/03 05:28:13;;;;;;;6.13;3.00;;;5.50;99.90;;;;;;5016296;28;20532;-51
2023/05/03 05:30:38;;;;;;;5.82;3.08;;;5.60;99.90;;;;;;5014600;28;20120;-51
2023/05/03 05:33:04;;;;;;;3.60;3.03;;;5.70;99.90;;;;;;5018141;28;20042;-53
2023/05/03 05:35:29;;;;;;;4.63;2.65;;;5.70;99.90;;;;;;5015169;28;20092;-51
2023/05/03 05:37:55;;;;;;;5.07;2.67;;;5.80;99.90;;;;;;5016673;28;20021;-50
2023/05/03 05:40:20;;;;;;;4.78;2.58;;;5.90;99.90;;;;;;5017770;28;20022;-49
2023/05/03 05:42:47;;;;;;;5.30;2.65;;;6.00;99.90;;;;;;5016011;28;20033;-49
2023/05/03 05:45:13;;;;;;;3.08;2.00;;;6.10;99.90;;;;;;5017914;28;20110;-50
2023/05/03 05:47:38;;;;;;;5.88;3.10;;;6.10;99.90;;;;;;5017526;28;20033;-50
2023/05/03 05:50:05;;;;;;;2.45;2.25;;;6.20;99.90;;;;;;5016794;28;20032;-50
2023/05/03 05:52:31;;;;;;;5.03;1.60;;;6.30;99.90;;;;;;5015827;28;20101;-53
2023/05/03 05:54:56;;;;;;;2.65;1.73;;;6.40;99.90;;;;;;5015326;28;20492;-51
2023/05/03 05:57:23;;;;;;;2.30;1.40;;;6.50;99.90;;;;;;5016109;28;20034;-50
2023/05/03 05:59:49;;;;;;;4.57;1.48;;;6.50;99.90;;;;;;5016177;28;20087;-52
2023/05/03 06:02:15;;;;;;;4.03;1.20;;;6.60;99.90;;;;;;5010369;28;20034;-49
2023/05/03 06:04:41;;;;;;;1.50;0.82;;;6.70;99.90;;;;;;5014621;28;20021;-50
2023/05/03 06:07:07;;;;;;;4.90;1.48;;;6.80;99.90;;;;;;5016091;28;20029;-50
2023/05/03 06:09:32;;;;;;;2.70;2.47;;;6.80;99.90;;;;;;5015472;28;20022;-52
2023/05/03 06:11:58;;;;;;;3.97;2.28;;;6.90;99.90;;;;;;5015274;28;20029;-49
2023/05/03 06:14:23;;;;;;;4.18;1.77;;;6.90;99.90;;;;;;5015988;28;20065;-51
2023/05/03 06:16:49;;;;;;;2.10;1.25;;;7.00;99.90;;;;;;5015128;28;20065;-52
2023/05/03 06:19:14;;;;;;;5.28;1.10;;;7.10;99.90;;;;;;5017447;28;20045;-50
2023/05/03 06:21:40;;;;;;;4.50;1.33;;;7.30;99.90;;;;;;5015482;28;20130;-50
2023/05/03 06:24:06;;;;;;;1.98;1.50;;;7.40;99.90;;;;;;5000790;28;20030;-50
2023/05/03 06:26:31;;;;;;;3.45;0.95;;;7.60;99.90;;;;;;5015200;28;20125;-51
2023/05/03 06:28:57;;;;;;;2.60;0.98;;;7.80;99.90;;;;;;5015944;28;20036;-50
2023/05/03 06:31:22;;;;;;;2.53;1.00;;;7.90;99.90;;;;;;5014478;28;20033;-49
2023/05/03 06:33:48;;;;;;;3.03;1.13;;;8.10;99.90;;;;;;5014672;28;20391;-49
2023/05/03 06:36:13;;;;;;;2.85;1.00;;;8.20;99.90;;;;;;5015664;28;20033;-48
2023/05/03 06:38:39;;;;;;;3.03;1.00;;;8.30;99.90;;;;;;5016223;28;20507;-50
2023/05/03 06:41:05;;;;;;;3.00;1.00;;;8.40;99.90;;;;;;5016374;28;20070;-50
2023/05/03 06:43:31;;;;;;;4.10;1.15;;;8.50;99.90;;;;;;5016323;28;20103;-53
2023/05/03 06:45:56;;;;;;;2.67;1.08;;;8.70;99.90;;;;;;5016273;28;20040;-49
2023/05/03 06:48:22;;;;;;;2.72;1.00;;;8.80;99.90;;;;;;5015055;28;20038;-49
2023/05/03 06:50:47;;;;;;;2.67;0.70;;;8.90;99.90;;;;;;5015713;28;20038;-54
2023/05/03 06:53:13;;;;;;;4.63;1.27;;;9.00;99.90;;;;;;5016436;28;20033;-51
2023/05/03 06:55:38;;;;;;;4.38;0.93;;;9.20;99.90;;;;;;5016879;28;20072;-52
2023/05/03 06:58:08;;;;;;;1.20;0.60;;;9.30;99.90;;;;;;5017070;28;20772;-50
2023/05/03 07:00:34;;;;;;;1.90;0.80;;;9.50;99.90;;;;;;5015039;28;20041;-51
2023/05/03 07:03:00;;;;;;;3.75;1.00;;;9.70;99.90;;;;;;5016037;28;20124;-50
2023/05/03 07:05:26;;;;;;;4.05;0.60;;;9.80;99.90;;;;;;5041009;23;20041;-65
2023/05/03 07:07:51;;;;;;;1.38;0.80;;;9.70;99.90;;;;;;5024691;28;20385;-64
2023/05/03 07:10:17;;;;;;;1.00;0.80;;;9.60;99.90;;;;;;5026438;28;20026;-63
2023/05/03 07:12:42;;;;;;;4.68;0.98;;;9.50;99.90;;;;;;5026134;28;20030;-64
2023/05/03 07:15:08;;;;;;;1.15;0.80;;;9.50;99.90;;;;;;5026503;28;20029;-62
2023/05/03 07:17:34;;;;;;;2.42;0.57;;;9.40;99.90;;;;;;5026037;28;20034;-65
2023/05/03 07:20:00;;;;;;;4.25;0.95;;;9.30;99.90;;;;;;5026460;28;20088;-65
2023/05/03 07:22:26;;;;;;;1.40;0.85;;;9.20;99.90;;;;;;5027320;28;20030;-64
2023/05/03 07:24:57;;;;;;;2.50;0.73;;;9.00;99.90;;;;;;5029852;28;20033;-64
2023/05/03 07:27:23;;;;;;;1.33;0.70;;;9.10;99.90;;;;;;5029618;28;20083;-64
2023/05/03 07:29:48;;;;;;;2.22;1.05;;;9.10;99.90;;;;;;5029520;28;20037;-64
2023/05/03 07:32:14;;;;;;;3.78;1.05;;;9.20;99.90;;;;;;5029453;28;20052;-65
2023/05/03 07:34:39;;;;;;;0.70;0.70;;;9.40;99.90;;;;;;5013164;28;20090;-64
2023/05/03 07:37:05;;;;;;;4.85;0.93;;;9.70;99.90;;;;;;5029541;28;20029;-65
2023/05/03 07:39:31;;;;;;;2.95;0.90;;;9.80;99.90;;;;;;5029780;28;20022;-65
2023/05/03 07:41:56;;;;;;;2.00;0.80;;;9.80;99.90;;;;;;5029353;28;20160;-65
2023/05/03 07:44:22;;;;;;;2.38;0.85;;;9.70;99.90;;;;;;5013318;28;20079;-65
2023/05/03 07:46:47;;;;;;;0.60;0.60;;;9.80;99.90;;;;;;5029128;28;20487;-65
2023/05/03 07:49:13;;;;;;;2.28;0.60;;;9.80;99.90;;;;;;5013005;28;20109;-65
2023/05/03 07:51:39;;;;;;;2.78;0.95;;;9.70;99.90;;;;;;5029449;28;20080;-66
2023/05/03 07:54:05;;;;;;;2.13;0.77;;;9.80;99.90;;;;;;5029457;28;20033;-64
2023/05/03 07:56:31;;;;;;;4.15;1.23;;;10.20;99.90;;;;;;5029023;28;20534;-64
2023/05/03 07:58:56;;;;;;;2.78;1.02;;;10.40;99.40;;;;;;5029330;28;20665;-64
2023/05/03 08:01:22;;;;;;;4.95;0.93;;;10.80;99.90;;;;;;5028706;28;20034;-65
2023/05/03 08:03:49;;;;;;;1.17;0.50;;;10.70;99.90;;;;;;5029316;28;20035;-64
2023/05/03 08:06:15;;;;;;;0.88;0.63;;;10.70;99.40;;;;;;5028664;28;20033;-65
2023/05/03 08:08:41;;;;;;;3.40;1.13;;;10.50;99.90;;;;;;5019473;28;20129;-65
2023/05/03 08:11:07;;;;;;;1.63;0.55;;;10.40;99.90;;;;;;5029444;28;20535;-66
2023/05/03 08:13:33;;;;;;;3.42;1.05;;;10.10;99.90;;;;;;5028910;28;20067;-64
2023/05/03 08:15:58;;;;;;;2.13;0.88;;;9.90;99.90;;;;;;5027572;28;20506;-64
2023/05/03 08:18:24;;;;;;;3.78;1.10;;;9.80;99.90;;;;;;5028139;28;20732;-66
2023/05/03 08:20:50;;;;;;;2.25;0.98;;;9.50;99.90;;;;;;5027115;28;20471;-64
2023/05/03 08:23:16;;;;;;;1.60;0.75;;;9.60;99.90;;;;;;5028908;28;20067;-65
2023/05/03 08:25:43;;;;;;;2.00;0.70;;;10.00;99.90;;;;;;5012893;28;20048;-65
2023/05/03 08:28:09;;;;;;;2.75;0.52;;;10.30;99.20;;;;;;5028497;28;20037;-65
2023/05/03 08:30:35;;;;;;;4.43;1.10;;;10.70;99.90;;;;;;5009934;28;20029;-64
2023/05/03 08:33:00;;;;;;;0.43;0.40;;;11.30;99.90;;;;;;5028304;28;20096;-65
2023/05/03 08:35:26;;;;;;;2.10;0.80;;;11.80;98.20;;;;;;5013038;28;20017;-66
2023/05/03 08:37:52;;;;;;;1.13;0.82;;;12.20;96.30;;;;;;5028274;28;20018;-65
2023/05/03 08:40:21;;;;;;;3.28;0.85;;;11.70;97.20;;;;;;5028801;28;20040;-65
2023/05/03 08:42:48;;;;;;;2.80;1.10;;;11.70;97.20;;;;;;5011149;28;20418;-65
2023/05/03 08:45:15;;;;;;;2.67;0.70;;;11.60;96.50;;;;;;5028181;28;20032;-64
2023/05/03 08:47:43;;;;;;;2.40;0.80;;;11.30;96.60;;;;;;5028168;28;20025;-65
2023/05/03 08:50:13;;;;;;;2.92;1.02;;;10.90;96.30;;;;;;5026476;28;20025;-64
2023/05/03 08:52:41;;;;;;;2.83;0.85;;;10.70;97.30;;;;;;5010210;28;20037;-65
2023/05/03 08:55:08;;;;;;;1.38;0.68;;;10.70;98.00;;;;;;5027988;28;20059;-65
2023/05/03 08:57:34;;;;;;;2.40;0.80;;;11.40;99.30;;;;;;5010096;28;20025;-66
2023/05/03 09:00:00;;;;;;;1.98;0.85;;;11.70;94.80;;;;;;5028024;28;20018;-67
2023/05/03 09:02:27;;;;;;;1.88;0.85;;;11.40;96.30;;;;;;5010940;28;20503;-66
2023/05/03 09:04:55;;;;;;;1.80;0.65;;;11.30;96.50;;;;;;5009644;28;20037;-65
2023/05/03 09:07:20;;;;;;;3.03;1.17;;;11.10;97.80;;;;;;5027105;28;20491;-65
2023/05/03 09:09:46;;;;;;;3.38;0.85;;;11.20;98.90;;;;;;5026221;28;20085;-65
2023/05/03 09:12:13;;;;;;;2.53;1.33;;;11.30;98.90;;;;;;5027844;28;20113;-65
2023/05/03 09:14:43;;;;;;;1.42;0.70;;;11.30;99.10;;;;;;5027450;28;20036;-64
2023/05/03 09:17:18;;;;;;;3.17;1.17;;;11.20;97.00;;;;;;5027766;28;20108;-65
2023/05/03 09:19:53;;;;;;;1.73;0.77;;;11.20;96.90;;;;;;5027635;28;20087;-65
2023/05/03 09:22:19;;;;;;;2.92;1.10;;;11.10;97.60;;;;;;5027771;28;20037;-65
2023/05/03 09:24:56;;;;;;;3.83;0.75;;;11.00;97.80;;;;;;5027803;28;20022;-65
2023/05/03 09:27:23;;;;;;;2.47;1.13;;;11.00;99.00;;;;;;5017003;28;20495;-66
2023/05/03 09:29:49;;;;;;;0.82;0.60;;;11.00;98.20;;;;;;5027620;28;20450;-66
2023/05/03 09:32:16;;;;;;;3.88;0.70;;;11.10;98.50;;;;;;5026516;28;20044;-64
2023/05/03 09:34:43;;;;;;;1.55;0.68;;;11.80;99.70;;;;;;5027176;28;20096;-65
2023/05/03 09:37:09;;;;;;;2.53;1.00;;;12.30;97.30;;;;;;5026700;28;20037;-66
2023/05/03 09:39:35;;;;;;;4.95;0.90;;;12.40;95.90;;;;;;5027522;28;20045;-65
2023/05/03 09:42:17;;;;;;;2.47;0.82;;;12.50;95.40;;;;;;5025002;28;20430;-66
2023/05/03 09:44:47;;;;;;;2.00;0.70;;;12.30;94.70;;;;;;5027283;28;20032;-65
2023/05/03 09:47:14;;;;;;;3.85;0.80;;;12.00;95.30;;;;;;5027011;28;20024;-66
2023/05/03 09:49:40;;;;;;;5.50;1.25;;;11.60;95.60;;;;;;5026621;28;20029;-66
2023/05/03 09:52:07;;;;;;;1.85;0.88;;;11.20;95.50;;;;;;5009527;28;20121;-66
2023/05/03 09:54:34;;;;;;;2.38;0.80;;;11.10;96.80;;;;;;5026897;28;20026;-66
2023/05/03 09:57:01;;;;;;;1.77;0.65;;;11.30;98.10;;;;;;5026511;28;20451;-65
2023/05/03 09:59:27;;;;;;;1.63;0.98;;;11.60;97.00;;;;;;5026433;28;20028;-66
2023/05/03 10:01:57;;;;;;;1.40;0.90;;;11.80;97.20;;;;;;5025796;28;20064;-65
2023/05/03 10:04:26;;;;;;;2.72;0.80;;;11.70;95.50;;;;;;5011148;28;20385;-65
2023/05/03 10:06:56;;;;;;;0.70;0.70;;;11.90;97.20;;;;;;5026093;28;20799;-66
2023/05/03 10:09:39;;;;;;;1.08;0.65;;;12.40;98.10;;;;;;5026601;28;20034;-65
2023/05/03 10:12:07;;;;;;;1.17;0.70;;;12.90;95.50;;;;;;5025212;28;20241;-65
2023/05/03 10:14:33;;;;;;;3.42;0.70;;;13.40;96.50;;;;;;5009133;28;20030;-65
2023/05/03 10:17:06;;;;;;;1.00;0.63;;;13.70;94.80;;;;;;5010395;28;20098;-65
2023/05/03 10:19:38;;;;;;;3.33;1.10;;;14.10;92.80;;;;;;5009440;28;20108;-65
2023/05/03 10:22:06;;;;;;;3.28;0.90;;;14.20;91.60;;;;;;5026091;28;20037;-63
2023/05/03 10:24:36;;;;;;;1.33;1.08;;;14.20;92.80;;;;;;5027095;28;20052;-65
2023/05/03 10:27:05;;;;;;;1.65;0.80;;;14.20;91.80;;;;;;5026282;28;20594;-66
2023/05/03 10:29:44;;;;;;;1.98;1.08;;;14.10;91.50;;;;;;5026985;28;20025;-66
2023/05/03 10:32:30;;;;;;;1.58;0.80;;;13.90;91.80;;;;;;5025532;28;20088;-65
2023/05/03 10:35:08;;;;;;;1.07;0.73;;;13.90;92.00;;;;;;5009088;28;20033;-65
2023/05/03 10:37:34;;;;;;;2.70;0.82;;;13.70;93.50;;;;;;5026442;28;20014;-67
2023/05/03 10:40:11;;;;;;;3.72;1.40;;;13.50;92.30;;;;;;5026852;28;20026;-67
2023/05/03 10:42:37;;;;;;;1.42;0.68;;;13.40;92.30;;;;;;5026619;28;20120;-65
2023/05/03 10:45:06;;;;;;;1.70;1.10;;;12.90;92.70;;;;;;5026359;28;20030;-66
2023/05/03 10:47:32;;;;;;;2.90;1.02;;;12.70;92.80;;;;;;5025653;28;20037;-66
2023/05/03 10:50:24;;;;;;;2.38;1.20;;;12.70;93.10;;;;;;5026543;28;20030;-66
2023/05/03 10:52:50;;;;;;;3.63;1.08;;;12.60;93.30;;;;;;5022411;28;20042;-66
2023/05/03 10:55:19;;;;;;;1.67;0.73;;;12.70;93.60;;;;;;5008692;28;20399;-66
2023/05/03 10:57:46;;;;;;;1.60;1.23;;;12.80;92.90;;;;;;5009935;28;20148;-65
2023/05/03 11:00:12;;;;;;;1.33;0.90;;;12.60;92.30;;;;;;5012298;28;20079;-65
2023/05/03 11:03:32;;;;;;;1.95;0.90;;;12.30;92.80;;;;;;5030083;28;20030;-65
2023/05/03 11:05:58;;;;;;;2.50;1.05;;;12.10;93.10;;;;;;5016868;28;20041;-65
2023/05/03 11:08:24;;;;;;;8.02;1.20;;;12.20;93.50;;;;;;5029943;28;20032;-65
2023/05/03 11:10:58;;;;;;;2.25;0.93;;;12.40;93.40;;;;;;5030245;28;20025;-66
2023/05/03 11:13:23;;;;;;;3.38;1.23;;;12.50;92.70;;;;;;5030474;28;20068;-66
2023/05/03 11:15:52;;;;;;;1.42;0.98;;;12.50;92.10;;;;;;5030322;28;20057;-69
2023/05/03 11:18:17;;;;;;;1.80;1.42;;;12.40;93.00;;;;;;5029710;28;20391;-65
2023/05/03 11:20:43;;;;;;;1.60;1.10;;;12.40;94.20;;;;;;5030117;28;20033;-66
2023/05/03 11:23:10;;;;;;;3.42;0.80;;;12.70;94.30;;;;;;5029976;28;20046;-66
2023/05/03 11:25:38;;;;;;;0.93;0.88;;;12.80;92.80;;;;;;5029071;28;20022;-65
2023/05/03 11:28:04;;;;;;;5.88;1.25;;;12.70;91.50;;;;;;5028001;28;20432;-66
2023/05/03 11:30:32;;;;;;;2.55;0.93;;;12.70;96.20;;;;;;5028627;28;20068;-67
2023/05/03 11:33:01;;;;;;;2.25;1.10;;;12.50;92.10;;;;;;5012032;28;20506;-67
2023/05/03 11:35:31;;;;;;;1.92;0.85;;;12.40;93.40;;;;;;5028625;28;20396;-65
2023/05/03 11:37:57;;;;;;;1.48;0.98;;;12.30;92.90;;;;;;5028003;28;20056;-66
2023/05/03 11:40:23;;;;;;;2.83;0.90;;;12.20;93.10;;;;;;5029816;28;20053;-66
2023/05/03 11:42:59;;;;;;;2.92;0.73;;;12.20;94.90;;;;;;5027981;28;20072;-66
2023/05/03 11:45:40;;;;;;;1.33;1.20;;;12.30;94.10;;;;;;5030017;28;20412;-66
2023/05/03 11:48:06;;;;;;;2.25;0.90;;;12.50;94.20;;;;;;5011014;28;20942;-67
2023/05/03 11:50:54;;;;;;;2.58;1.25;;;12.70;93.30;;;;;;5029805;28;20041;-66
2023/05/03 11:53:22;;;;;;;3.58;1.42;;;12.80;91.90;;;;;;5029172;28;20113;-66
2023/05/03 11:55:53;;;;;;;2.78;1.30;;;12.90;93.20;;;;;;5012731;28;20026;-66
2023/05/03 11:58:25;;;;;;;3.30;1.05;;;13.30;94.80;;;;;;5011540;28;20397;-65
2023/05/03 12:00:53;;;;;;;1.05;0.95;;;13.60;94.00;;;;;;5028574;28;20033;-65
2023/05/03 12:03:27;;;;;;;2.00;1.10;;;14.00;95.20;;;;;;5028708;28;20029;-66
2023/05/03 12:05:52;;;;;;;1.25;0.82;;;14.20;94.60;;;;;;5011086;28;20137;-65
2023/05/03 12:08:20;;;;;;;2.22;1.45;;;14.40;92.80;;;;;;5027022;28;20036;-65
2023/05/03 12:10:46;;;;;;;1.15;1.00;;;14.80;90.50;;;;;;5029330;28;20118;-66
2023/05/03 12:13:12;;;;;;;3.95;1.20;;;14.70;90.00;;;;;;5028482;28;20022;-66
2023/05/03 12:15:39;;;;;;;1.95;1.35;;;14.70;91.30;;;;;;5029124;28;20364;-67
2023/05/03 12:18:07;;;;;;;2.38;1.10;;;14.70;90.00;;;;;;5028006;28;20028;-66
2023/05/03 12:20:33;;;;;;;1.55;1.17;;;14.50;91.40;;;;;;5013735;28;20039;-66
2023/05/03 12:23:01;;;;;;;1.95;1.17;;;14.40;91.30;;;;;;5028422;28;20112;-67
2023/05/03 12:25:28;;;;;;;1.25;0.95;;;14.40;92.00;;;;;;5011029;28;20033;-65
2023/05/03 12:27:56;;;;;;;2.92;1.13;;;14.30;93.10;;;;;;5012515;28;20075;-64
2023/05/03 12:30:22;;;;;;;2.80;0.98;;;14.30;91.80;;;;;;5027729;28;20061;-66
2023/05/03 12:32:48;;;;;;;5.53;1.25;;;14.30;90.40;;;;;;5011489;28;20026;-66
2023/05/03 12:35:15;;;;;;;1.95;1.23;;;14.50;93.20;;;;;;5028274;28;20044;-66
2023/05/03 12:37:40;;;;;;;2.58;1.40;;;14.70;91.60;;;;;;5028052;28;20144;-66
2023/05/03 12:40:07;;;;;;;4.20;1.27;;;14.60;90.00;;;;;;5011744;28;20109;-65
2023/05/03 12:42:33;;;;;;;2.05;1.15;;;14.50;87.00;;;;;;5028618;28;20029;-66
2023/05/03 12:44:59;;;;;;;3.60;1.42;;;14.30;90.40;;;;;;5027666;28;20056;-66
2023/05/03 12:47:25;;;;;;;2.25;1.30;;;14.50;89.60;;;;;;5024953;28;20026;-66
2023/05/03 12:49:51;;;;;;;4.07;1.80;;;14.70;90.30;;;;;;5009063;28;20108;-66
2023/05/03 12:52:17;;;;;;;2.72;1.50;;;14.70;87.50;;;;;;5028050;28;20561;-66
2023/05/03 12:54:45;;;;;;;1.85;1.33;;;14.90;89.50;;;;;;5027924;28;20108;-66